Time;durP1;ratioP1;P1;durP2;ratioP2;P2;SDS_P1;SDS_P2;PMS_P1;PMS_P2;Temp;Humidity;BMP_temperature;BMP_pressure;BME280_temperature;BME280_humidity;BME280_pressure;Samples;Min_cycle;Max_cycle;Signal;HPM_P1;HPM_P2
2023/08/10 00:02:02;;;;;;;;;;;;;;;20.48;45.72;101856.53;5020815;28;19945;-81
2023/08/10 00:04:28;;;;;;;;;;;;;;;20.46;45.68;101856.81;5021514;28;19917;-81
2023/08/10 00:06:53;;;;;;;;;;;;;;;20.43;45.69;101862.81;5020886;28;20344;-82
2023/08/10 00:09:18;;;;;;;;;;;;;;;20.42;45.74;101863.94;5017366;28;20019;-82
2023/08/10 00:11:43;;;;;;;;;;;;;;;20.43;45.57;101867.47;5002646;28;20293;-81
2023/08/10 00:14:09;;;;;;;;;;;;;;;20.42;45.68;101868.56;5022211;28;19921;-82
2023/08/10 00:16:34;;;;;;;;;;;;;;;20.40;45.58;101865.28;5020853;28;19926;-81
2023/08/10 00:19:00;;;;;;;;;;;;;;;20.34;45.50;101867.25;5021559;28;19941;-82
2023/08/10 00:21:26;;;;;;;;;;;;;;;20.30;45.74;101868.13;5023165;28;19940;-82
2023/08/10 00:23:51;;;;;;;;;;;;;;;20.29;46.18;101869.19;5025080;28;20449;-81
2023/08/10 00:26:17;;;;;;;;;;;;;;;20.31;45.76;101867.03;5024036;28;19925;-82
2023/08/10 00:28:42;;;;;;;;;;;;;;;20.33;45.87;101867.53;5022532;28;19916;-82
2023/08/10 00:31:07;;;;;;;;;;;;;;;20.32;46.00;101865.91;5020439;28;20460;-82
2023/08/10 00:33:34;;;;;;;;;;;;;;;20.34;46.10;101872.69;5026294;28;20734;-81
2023/08/10 00:36:03;;;;;;;;;;;;;;;20.37;46.01;101874.03;5020906;28;20624;-81
2023/08/10 00:38:28;;;;;;;;;;;;;;;20.41;46.04;101875.09;5025326;28;20308;-82
2023/08/10 00:40:53;;;;;;;;;;;;;;;20.43;46.10;101878.34;5022525;28;19921;-82
2023/08/10 00:43:21;;;;;;;;;;;;;;;20.44;45.73;101871.81;5006340;28;19917;-82
2023/08/10 00:45:46;;;;;;;;;;;;;;;20.40;45.93;101874.25;5020452;28;19917;-82
2023/08/10 00:48:11;;;;;;;;;;;;;;;20.41;46.19;101875.09;5023229;28;19971;-81
2023/08/10 00:50:36;;;;;;;;;;;;;;;20.40;45.92;101873.44;5025128;28;19921;-82
2023/08/10 00:53:02;;;;;;;;;;;;;;;20.43;46.14;101891.97;5020745;28;19925;-82
2023/08/10 00:55:27;;;;;;;;;;;;;;;20.42;46.26;101879.44;5022753;28;20020;-82
2023/08/10 00:57:53;;;;;;;;;;;;;;;20.41;46.25;101880.56;5024546;28;19921;-82
2023/08/10 01:00:18;;;;;;;;;;;;;;;20.40;46.26;101878.91;5024962;28;19964;-82
2023/08/10 01:02:43;;;;;;;;;;;;;;;20.40;46.19;101876.19;5021281;28;20013;-81
2023/08/10 01:05:12;;;;;;;;;;;;;;;20.42;46.10;101882.16;5001815;28;19929;-81
2023/08/10 01:07:40;;;;;;;;;;;;;;;20.45;46.15;101876.16;5002665;28;19928;-81
2023/08/10 01:10:24;;;;;;;;;;;;;;;20.47;46.03;101884.88;5019153;28;20482;-81
2023/08/10 01:12:50;;;;;;;;;;;;;;;20.43;46.30;101883.78;5026498;28;19931;-82
2023/08/10 01:15:32;;;;;;;;;;;;;;;20.44;46.23;101888.94;5020916;28;20007;-82
2023/08/10 01:17:58;;;;;;;;;;;;;;;20.45;46.06;101887.84;5011104;28;19932;-81
2023/08/10 01:20:25;;;;;;;;;;;;;;;20.45;46.20;101887.84;5023534;28;19925;-81
2023/08/10 01:22:50;;;;;;;;;;;;;;;20.47;46.10;101898.47;5020073;28;19926;-81
2023/08/10 01:25:16;;;;;;;;;;;;;;;20.48;46.34;101902.81;5027739;28;20330;-81
2023/08/10 01:27:42;;;;;;;;;;;;;;;20.50;46.47;101896.00;5023542;28;19928;-81
2023/08/10 01:30:08;;;;;;;;;;;;;;;20.53;46.39;101891.88;5007647;28;19943;-81
2023/08/10 01:32:33;;;;;;;;;;;;;;;20.56;46.20;101895.94;5023888;28;19920;-81
2023/08/10 01:35:05;;;;;;;;;;;;;;;20.60;46.31;101903.22;5025226;28;19924;-82
2023/08/10 01:37:31;;;;;;;;;;;;;;;20.65;46.04;101902.41;5022893;28;20388;-82
2023/08/10 01:39:56;;;;;;;;;;;;;;;20.70;46.06;101903.16;5021364;28;19928;-82
2023/08/10 01:42:24;;;;;;;;;;;;;;;20.77;45.78;101906.31;5023888;28;19921;-81
2023/08/10 01:44:50;;;;;;;;;;;;;;;20.81;45.93;101903.81;5024212;28;20753;-81
2023/08/10 01:47:29;;;;;;;;;;;;;;;20.84;45.81;101897.03;5021581;28;19924;-81
2023/08/10 01:50:00;;;;;;;;;;;;;;;20.86;45.53;101898.34;5019601;28;19987;-83
2023/08/10 01:52:28;;;;;;;;;;;;;;;20.90;45.50;101901.31;5023167;28;20589;-83
2023/08/10 01:54:54;;;;;;;;;;;;;;;20.92;45.46;101901.81;5027020;28;20131;-83
2023/08/10 01:57:19;;;;;;;;;;;;;;;20.92;45.64;101905.34;5027392;28;20372;-82
2023/08/10 01:59:44;;;;;;;;;;;;;;;20.92;45.50;101899.91;5028456;28;19929;-82
2023/08/10 02:02:10;;;;;;;;;;;;;;;20.94;45.46;101899.63;5029055;28;20396;-82
2023/08/10 02:04:35;;;;;;;;;;;;;;;20.94;45.55;101903.16;5025750;28;19924;-83
2023/08/10 02:07:01;;;;;;;;;;;;;;;20.98;45.38;101900.66;5006979;28;19913;-82
2023/08/10 02:09:27;;;;;;;;;;;;;;;20.98;45.49;101904.19;5027516;28;20027;-83
2023/08/10 02:11:52;;;;;;;;;;;;;;;21.01;45.33;101894.66;5021724;28;20023;-82
2023/08/10 02:14:18;;;;;;;;;;;;;;;21.01;45.50;101900.09;5022184;28;19962;-82
2023/08/10 02:16:43;;;;;;;;;;;;;;;21.01;45.32;101905.53;5026313;28;20455;-83
2023/08/10 02:19:08;;;;;;;;;;;;;;;21.03;45.34;101914.25;5007868;28;19917;-83
2023/08/10 02:21:34;;;;;;;;;;;;;;;21.03;45.17;101906.88;5025600;28;20502;-82
2023/08/10 02:23:59;;;;;;;;;;;;;;;21.06;45.16;101905.47;5019830;28;19921;-82
2023/08/10 02:26:24;;;;;;;;;;;;;;;21.07;45.26;101901.66;5026962;28;19921;-82
2023/08/10 02:28:49;;;;;;;;;;;;;;;21.07;45.31;101907.09;5007041;28;20481;-82
2023/08/10 02:31:15;;;;;;;;;;;;;;;21.05;45.19;101909.31;5024224;28;19927;-82
2023/08/10 02:33:40;;;;;;;;;;;;;;;21.03;45.20;101911.50;5007883;28;19970;-82
2023/08/10 02:36:05;;;;;;;;;;;;;;;21.03;45.25;101908.78;5010728;28;20273;-82
2023/08/10 02:38:31;;;;;;;;;;;;;;;21.00;45.32;101901.97;5008397;28;20047;-82
2023/08/10 02:40:56;;;;;;;;;;;;;;;20.98;45.04;101900.66;5024648;28;20012;-83
2023/08/10 02:43:21;;;;;;;;;;;;;;;20.98;45.31;101911.56;5026357;28;19979;-83
2023/08/10 02:45:47;;;;;;;;;;;;;;;20.97;45.20;101899.03;5026165;28;19921;-82
2023/08/10 02:48:12;;;;;;;;;;;;;;;20.96;45.10;101905.59;5027469;28;20007;-82
2023/08/10 02:50:37;;;;;;;;;;;;;;;20.96;45.13;101902.84;5024328;28;19925;-82
2023/08/10 02:53:03;;;;;;;;;;;;;;;20.94;45.09;101905.06;5024622;28;19921;-83
2023/08/10 02:55:28;;;;;;;;;;;;;;;20.91;45.13;101905.66;5023528;28;20285;-83
2023/08/10 02:57:53;;;;;;;;;;;;;;;20.90;45.15;101906.75;5009300;28;19935;-82
2023/08/10 03:00:19;;;;;;;;;;;;;;;20.88;45.31;101908.94;5022764;28;19921;-83
2023/08/10 03:02:44;;;;;;;;;;;;;;;20.87;45.27;101908.16;5006676;28;19921;-82
2023/08/10 03:05:11;;;;;;;;;;;;;;;20.88;45.07;101898.06;5019423;28;19933;-82
2023/08/10 03:07:36;;;;;;;;;;;;;;;20.85;45.13;101914.97;5008713;28;19921;-82
2023/08/10 03:10:02;;;;;;;;;;;;;;;20.83;45.08;101915.28;5025686;28;20013;-83
2023/08/10 03:12:27;;;;;;;;;;;;;;;20.80;45.04;101910.38;5026739;28;19928;-83
2023/08/10 03:14:52;;;;;;;;;;;;;;;20.77;44.96;101905.50;5023195;28;19971;-82
2023/08/10 03:17:18;;;;;;;;;;;;;;;20.74;45.22;101917.00;5027282;28;20071;-82
2023/08/10 03:19:44;;;;;;;;;;;;;;;20.70;45.21;101913.22;5024065;28;20270;-83
2023/08/10 03:22:09;;;;;;;;;;;;;;;20.72;45.21;101917.28;5027734;28;19924;-82
2023/08/10 03:24:36;;;;;;;;;;;;;;;20.71;44.91;101920.28;5020941;28;19921;-83
2023/08/10 03:27:01;;;;;;;;;;;;;;;20.68;45.02;101923.59;5020402;28;19925;-82
2023/08/10 03:29:26;;;;;;;;;;;;;;;20.66;45.05;101934.78;5027257;28;19925;-82
2023/08/10 03:31:52;;;;;;;;;;;;;;;20.64;45.12;101934.22;5026495;28;19917;-82
2023/08/10 03:34:17;;;;;;;;;;;;;;;20.61;45.02;101939.44;5023598;28;19961;-82
2023/08/10 03:36:42;;;;;;;;;;;;;;;20.56;45.22;101940.31;5027538;28;20067;-83
2023/08/10 03:39:08;;;;;;;;;;;;;;;20.46;45.28;101940.38;5020923;28;19924;-83
2023/08/10 03:41:33;;;;;;;;;;;;;;;20.37;45.41;101944.81;5005938;28;20395;-83
2023/08/10 03:43:58;;;;;;;;;;;;;;;20.31;45.64;101943.22;5025702;28;19933;-83
2023/08/10 03:46:23;;;;;;;;;;;;;;;20.27;45.67;101953.03;5022703;28;19917;-82
2023/08/10 03:48:49;;;;;;;;;;;;;;;20.25;45.47;101952.50;5003151;28;19924;-82
2023/08/10 03:51:14;;;;;;;;;;;;;;;20.22;45.63;101951.97;5022666;28;20003;-83
2023/08/10 03:53:39;;;;;;;;;;;;;;;20.23;45.43;101963.69;5024180;28;20431;-82
2023/08/10 03:56:06;;;;;;;;;;;;;;;20.20;45.73;101959.63;5022067;28;19924;-82
2023/08/10 03:58:32;;;;;;;;;;;;;;;20.20;45.71;101956.09;5023777;28;19916;-82
2023/08/10 04:00:57;;;;;;;;;;;;;;;20.17;45.88;101964.81;5023683;28;19929;-82
2023/08/10 04:03:22;;;;;;;;;;;;;;;20.17;45.94;101962.09;5005154;28;19948;-82
2023/08/10 04:05:48;;;;;;;;;;;;;;;20.20;45.99;101958.81;5020555;28;19924;-83
2023/08/10 04:08:13;;;;;;;;;;;;;;;20.22;45.99;101965.59;5020966;28;19921;-83
2023/08/10 04:10:39;;;;;;;;;;;;;;;20.26;45.79;101956.84;5022759;28;20007;-82
2023/08/10 04:13:05;;;;;;;;;;;;;;;20.29;46.03;101967.16;5028227;28;20052;-82
2023/08/10 04:15:30;;;;;;;;;;;;;;;20.30;45.98;101963.38;5024291;28;20522;-83
2023/08/10 04:17:56;;;;;;;;;;;;;;;20.32;46.11;101963.91;5022846;28;19925;-82
2023/08/10 04:20:21;;;;;;;;;;;;;;;20.32;46.03;101966.63;5007345;28;19925;-82
2023/08/10 04:22:47;;;;;;;;;;;;;;;20.33;46.35;101962.81;5020406;28;19921;-83
2023/08/10 04:25:12;;;;;;;;;;;;;;;20.36;46.12;101965.75;5023985;28;20018;-83
2023/08/10 04:27:37;;;;;;;;;;;;;;;20.36;46.52;101973.13;5021926;28;19921;-82
2023/08/10 04:30:04;;;;;;;;;;;;;;;20.37;46.55;101970.09;5019872;28;20004;-83
2023/08/10 04:32:29;;;;;;;;;;;;;;;20.42;46.23;101977.44;5025144;28;19998;-82
2023/08/10 04:34:54;;;;;;;;;;;;;;;20.46;46.22;101973.06;5020177;28;19981;-82
2023/08/10 04:37:20;;;;;;;;;;;;;;;20.54;46.22;101974.38;5023345;28;19935;-82
2023/08/10 04:39:45;;;;;;;;;;;;;;;20.61;46.06;101972.94;5022700;28;19930;-83
2023/08/10 04:42:11;;;;;;;;;;;;;;;20.68;45.87;101967.97;5018940;28;20336;-82
2023/08/10 04:44:36;;;;;;;;;;;;;;;20.75;46.08;101967.63;5024698;28;20008;-82
2023/08/10 04:47:01;;;;;;;;;;;;;;;20.79;45.93;101979.56;5021234;28;19925;-83
2023/08/10 04:49:28;;;;;;;;;;;;;;;20.85;45.72;101977.63;5017885;28;19925;-82
2023/08/10 04:51:54;;;;;;;;;;;;;;;20.91;45.84;101987.38;5020757;28;19917;-83
2023/08/10 04:54:19;;;;;;;;;;;;;;;20.95;45.47;101985.69;5023414;28;20418;-82
2023/08/10 04:56:44;;;;;;;;;;;;;;;21.01;45.46;101979.91;5021482;28;19917;-83
2023/08/10 04:59:09;;;;;;;;;;;;;;;21.07;45.38;101984.22;5024089;28;19932;-82
2023/08/10 05:01:35;;;;;;;;;;;;;;;21.11;45.20;101987.97;5023542;28;19929;-82
2023/08/10 05:04:00;;;;;;;;;;;;;;;21.15;44.99;101985.47;5020791;28;20640;-82
2023/08/10 05:06:25;;;;;;;;;;;;;;;21.17;45.04;101991.44;5007776;28;19921;-82
2023/08/10 05:08:51;;;;;;;;;;;;;;;21.16;44.82;101995.28;5024021;28;19922;-82
2023/08/10 05:11:16;;;;;;;;;;;;;;;21.17;44.93;101996.91;5021713;28;19928;-82
2023/08/10 05:13:42;;;;;;;;;;;;;;;21.18;44.83;101995.78;5022650;28;19965;-82
2023/08/10 05:16:07;;;;;;;;;;;;;;;21.19;44.87;102002.91;5022900;28;19921;-82
2023/08/10 05:18:33;;;;;;;;;;;;;;;21.18;44.58;102001.25;5023784;28;20455;-82
2023/08/10 05:20:59;;;;;;;;;;;;;;;21.17;44.65;102005.06;5019698;28;20435;-82
2023/08/10 05:23:24;;;;;;;;;;;;;;;21.18;44.71;102001.25;5025361;28;19940;-82
2023/08/10 05:25:50;;;;;;;;;;;;;;;21.23;44.51;102011.31;5023581;28;19925;-82
2023/08/10 05:28:16;;;;;;;;;;;;;;;21.26;44.81;102013.47;5026569;28;19921;-82
2023/08/10 05:30:41;;;;;;;;;;;;;;;21.28;44.81;102017.53;5028736;28;19924;-82
2023/08/10 05:33:06;;;;;;;;;;;;;;;21.31;44.59;102016.13;5025534;28;19928;-82
2023/08/10 05:35:31;;;;;;;;;;;;;;;21.30;44.63;102019.97;5028579;28;19924;-82
2023/08/10 05:37:57;;;;;;;;;;;;;;;21.28;44.68;102011.28;5024982;28;20474;-82
2023/08/10 05:40:23;;;;;;;;;;;;;;;21.28;44.43;102014.81;5030878;28;20685;-82
2023/08/10 05:42:49;;;;;;;;;;;;;;;21.26;44.66;102017.00;5028707;28;20415;-82
2023/08/10 05:45:19;;;;;;;;;;;;;;;21.26;44.52;102016.19;5024640;28;19925;-82
2023/08/10 05:47:45;;;;;;;;;;;;;;;21.28;44.52;102028.44;5028631;28;19953;-82
2023/08/10 05:50:11;;;;;;;;;;;;;;;21.28;44.37;102022.19;5030535;28;19921;-82
2023/08/10 05:52:38;;;;;;;;;;;;;;;21.28;44.47;102028.44;5029961;28;20209;-82
2023/08/10 05:55:04;;;;;;;;;;;;;;;21.28;44.33;102025.72;5030023;28;19939;-82
2023/08/10 05:57:29;;;;;;;;;;;;;;;21.31;44.22;102025.13;5030202;28;19920;-82
2023/08/10 05:59:55;;;;;;;;;;;;;;;21.37;44.23;102032.16;5028899;28;20292;-82
2023/08/10 06:02:21;;;;;;;;;;;;;;;21.47;44.12;102035.88;5027890;28;19921;-82
2023/08/10 06:04:46;;;;;;;;;;;;;;;21.56;44.11;102037.69;5028623;28;19932;-82
2023/08/10 06:07:12;;;;;;;;;;;;;;;21.71;43.93;102028.47;5029226;28;19923;-81
2023/08/10 06:09:37;;;;;;;;;;;;;;;21.84;43.82;102029.69;5010916;28;20007;-82
2023/08/10 06:12:03;;;;;;;;;;;;;;;21.97;43.62;102021.59;5026084;28;19924;-82
2023/08/10 06:14:28;;;;;;;;;;;;;;;22.16;43.65;102026.28;5028735;28;20404;-82
2023/08/10 06:16:53;;;;;;;;;;;;;;;22.30;42.92;102021.72;5025104;28;19921;-82
2023/08/10 06:19:19;;;;;;;;;;;;;;;22.37;42.95;102022.13;5026495;28;19921;-82
2023/08/10 06:21:44;;;;;;;;;;;;;;;22.53;42.64;102030.91;5019484;28;19926;-82
2023/08/10 06:24:09;;;;;;;;;;;;;;;22.61;42.50;102028.28;5026735;28;20432;-81
2023/08/10 06:26:36;;;;;;;;;;;;;;;22.71;42.16;102023.78;5022652;28;19921;-81
2023/08/10 06:29:02;;;;;;;;;;;;;;;22.75;42.21;102022.88;5026362;28;19917;-82
2023/08/10 06:31:28;;;;;;;;;;;;;;;22.86;42.04;102020.81;5023321;28;20003;-81
2023/08/10 06:33:53;;;;;;;;;;;;;;;22.94;41.67;102025.59;5026342;28;20000;-81
2023/08/10 06:36:19;;;;;;;;;;;;;;;23.06;41.63;102028.66;5025473;28;19963;-81
2023/08/10 06:38:44;;;;;;;;;;;;;;;23.14;41.27;102019.75;5025706;28;19921;-82
2023/08/10 06:41:09;;;;;;;;;;;;;;;23.18;41.01;102022.72;5007947;28;19921;-81
2023/08/10 06:43:34;;;;;;;;;;;;;;;23.25;41.10;102025.03;5027505;28;20564;-81
2023/08/10 06:46:00;;;;;;;;;;;;;;;23.38;40.92;102040.66;5008819;28;19917;-82
2023/08/10 06:48:25;;;;;;;;;;;;;;;23.51;40.94;102035.16;5029519;28;19928;-81
2023/08/10 06:50:51;;;;;;;;;;;;;;;23.65;40.60;102035.19;5025162;28;19968;-81
2023/08/10 06:53:16;;;;;;;;;;;;;;;23.80;40.58;102034.06;5030758;28;19974;-81
2023/08/10 06:55:42;;;;;;;;;;;;;;;23.89;40.01;102045.13;5024114;28;19917;-81
2023/08/10 06:58:08;;;;;;;;;;;;;;;23.89;39.72;102045.94;5021483;28;20500;-82
2023/08/10 07:00:34;;;;;;;;;;;;;;;23.91;39.64;102034.69;5023260;28;19925;-81
2023/08/10 07:02:59;;;;;;;;;;;;;;;23.96;39.75;102040.03;5003500;28;19928;-83
2023/08/10 07:05:28;;;;;;;;;;;;;;;24.07;39.55;102031.28;5023726;28;20397;-81
2023/08/10 07:07:54;;;;;;;;;;;;;;;24.19;39.26;102044.44;5024109;28;19921;-82
2023/08/10 07:10:19;;;;;;;;;;;;;;;24.32;39.30;102046.34;5026550;28;19978;-81
2023/08/10 07:12:45;;;;;;;;;;;;;;;24.40;38.87;102055.75;5025068;28;20309;-81
2023/08/10 07:15:11;;;;;;;;;;;;;;;24.52;38.34;102056.03;5021629;28;20008;-81
2023/08/10 07:17:36;;;;;;;;;;;;;;;24.59;37.99;102058.31;5026998;28;19925;-81
2023/08/10 07:20:04;;;;;;;;;;;;;;;24.64;38.24;102056.28;5022306;28;19933;-81
2023/08/10 07:22:30;;;;;;;;;;;;;;;24.65;38.18;102051.59;5024469;28;19970;-81
2023/08/10 07:24:55;;;;;;;;;;;;;;;24.70;38.09;102055.03;5022991;28;19925;-82
2023/08/10 07:27:20;;;;;;;;;;;;;;;24.80;38.11;102055.91;5025996;28;19925;-81
2023/08/10 07:29:46;;;;;;;;;;;;;;;24.89;38.33;102056.75;5019206;28;20491;-81
2023/08/10 07:32:12;;;;;;;;;;;;;;;25.11;38.09;102055.94;5029285;28;19917;-81
2023/08/10 07:34:37;;;;;;;;;;;;;;;25.25;37.67;102051.97;5028643;28;20505;-81
2023/08/10 07:37:03;;;;;;;;;;;;;;;25.44;37.26;102054.47;5023131;28;19921;-83
2023/08/10 07:39:29;;;;;;;;;;;;;;;25.56;36.71;102054.69;5022131;28;19925;-84
2023/08/10 07:41:55;;;;;;;;;;;;;;;25.73;36.80;102056.72;5024361;28;19917;-83
2023/08/10 07:44:20;;;;;;;;;;;;;;;25.89;36.34;102054.31;5024535;28;20395;-83
2023/08/10 07:46:46;;;;;;;;;;;;;;;25.96;36.22;102060.16;5023776;28;19921;-84
2023/08/10 07:49:12;;;;;;;;;;;;;;;25.99;35.86;102062.25;5021700;28;19918;-84
2023/08/10 07:51:38;;;;;;;;;;;;;;;26.04;35.77;102064.84;5020010;28;19925;-82
2023/08/10 07:54:03;;;;;;;;;;;;;;;26.10;35.08;102063.56;5021382;28;19999;-84
2023/08/10 07:56:28;;;;;;;;;;;;;;;26.11;33.91;102070.66;5019332;28;19962;-83
2023/08/10 07:58:53;;;;;;;;;;;;;;;26.14;33.03;102066.47;5026283;28;19917;-81
2023/08/10 08:01:19;;;;;;;;;;;;;;;26.23;35.03;102066.50;5021190;28;19921;-84
2023/08/10 08:03:44;;;;;;;;;;;;;;;26.36;34.05;102062.78;5019080;28;20050;-84
2023/08/10 08:06:10;;;;;;;;;;;;;;;26.42;34.41;102064.25;5022138;28;20496;-84
2023/08/10 08:08:35;;;;;;;;;;;;;;;26.53;34.06;102075.72;5019003;28;19928;-83
2023/08/10 08:11:01;;;;;;;;;;;;;;;26.65;33.96;102067.63;5020178;28;19917;-84
2023/08/10 08:13:26;;;;;;;;;;;;;;;26.66;33.18;102075.56;5021111;28;19925;-83
2023/08/10 08:15:51;;;;;;;;;;;;;;;26.65;33.77;102073.13;5008008;28;19928;-82
2023/08/10 08:18:40;;;;;;;;;;;;;;;26.67;33.21;102068.91;5024785;28;19928;-83
2023/08/10 08:21:05;;;;;;;;;;;;;;;26.73;32.83;102075.84;5018869;28;19937;-83
2023/08/10 08:23:30;;;;;;;;;;;;;;;26.75;33.03;102081.03;5018829;28;20304;-82
2023/08/10 08:25:56;;;;;;;;;;;;;;;26.75;32.63;102070.88;5018640;28;19940;-83
2023/08/10 08:28:21;;;;;;;;;;;;;;;26.72;32.51;102070.69;5018791;28;19921;-84
2023/08/10 08:30:47;;;;;;;;;;;;;;;26.76;32.62;102068.94;5021924;28;20309;-83
2023/08/10 08:33:12;;;;;;;;;;;;;;;26.85;32.44;102082.66;4999672;28;19990;-83
2023/08/10 08:35:38;;;;;;;;;;;;;;;26.87;31.93;102077.63;5024032;28;20483;-83
2023/08/10 08:38:04;;;;;;;;;;;;;;;26.71;31.68;102078.13;5025071;28;20377;-86
2023/08/10 08:40:30;;;;;;;;;;;;;;;26.69;32.35;102074.91;5023290;28;20408;-82
2023/08/10 08:42:58;;;;;;;;;;;;;;;26.84;31.99;102076.34;5024215;28;19917;-84
2023/08/10 08:45:23;;;;;;;;;;;;;;;26.92;31.64;102072.75;5023098;28;19917;-80
2023/08/10 08:47:48;;;;;;;;;;;;;;;27.02;31.59;102071.63;5020313;28;19963;-82
2023/08/10 08:50:15;;;;;;;;;;;;;;;27.06;31.39;102078.91;5017653;28;20824;-81
2023/08/10 08:52:42;;;;;;;;;;;;;;;27.01;30.88;102075.53;5023781;28;19927;-83
2023/08/10 08:55:07;;;;;;;;;;;;;;;26.88;30.92;102068.25;5022494;28;19921;-81
2023/08/10 08:57:33;;;;;;;;;;;;;;;26.75;31.10;102079.13;5017646;28;19921;-84
2023/08/10 08:59:59;;;;;;;;;;;;;;;26.65;31.02;102067.63;5024844;28;19921;-84
2023/08/10 09:02:24;;;;;;;;;;;;;;;26.64;31.12;102079.78;5021546;28;19979;-83
2023/08/10 09:04:51;;;;;;;;;;;;;;;26.65;31.02;102081.38;5022647;28;19983;-83
2023/08/10 09:07:17;;;;;;;;;;;;;;;26.67;30.31;102074.41;5019624;28;19925;-81
2023/08/10 09:09:43;;;;;;;;;;;;;;;26.62;30.53;102077.34;5021056;28;20119;-82
2023/08/10 09:12:27;;;;;;;;;;;;;;;26.62;30.95;102085.59;5020221;28;20372;-83
2023/08/10 09:15:01;;;;;;;;;;;;;;;26.60;30.79;102085.13;5017668;28;20280;-85
2023/08/10 09:17:26;;;;;;;;;;;;;;;26.66;31.18;102081.06;5025387;28;19924;-82
2023/08/10 09:19:53;;;;;;;;;;;;;;;26.68;31.22;102081.53;5019013;28;19929;-82
2023/08/10 09:22:37;;;;;;;;;;;;;;;26.77;31.04;102076.84;5023339;28;19925;-80
2023/08/10 09:25:03;;;;;;;;;;;;;;;26.85;31.29;102075.19;5023871;28;20080;-83
2023/08/10 09:27:29;;;;;;;;;;;;;;;26.93;31.23;102079.91;5020740;28;20012;-81
2023/08/10 09:29:58;;;;;;;;;;;;;;;27.03;30.95;102085.06;5021009;28;19917;-82
2023/08/10 09:32:23;;;;;;;;;;;;;;;27.01;30.91;102067.28;5022851;28;19918;-82
2023/08/10 09:34:49;;;;;;;;;;;;;;;26.98;30.67;102079.72;5020071;28;19925;-82
2023/08/10 09:37:14;;;;;;;;;;;;;;;27.00;31.07;102074.72;5013356;28;19945;-83
2023/08/10 09:39:40;;;;;;;;;;;;;;;27.05;30.42;102079.22;5021859;28;19943;-81
2023/08/10 09:42:05;;;;;;;;;;;;;;;27.09;30.40;102071.94;5021018;28;19979;-82
2023/08/10 09:44:47;;;;;;;;;;;;;;;27.10;30.60;102081.81;5022616;28;20308;-81
2023/08/10 09:47:15;;;;;;;;;;;;;;;27.18;30.64;102075.47;5020439;28;19924;-80
2023/08/10 09:49:55;;;;;;;;;;;;;;;27.26;30.45;102071.88;5023147;28;19917;-84
2023/08/10 09:52:20;;;;;;;;;;;;;;;27.27;30.34;102073.50;5019271;28;20876;-81
2023/08/10 09:54:46;;;;;;;;;;;;;;;27.23;30.43;102083.53;5026809;28;19924;-81
2023/08/10 09:57:12;;;;;;;;;;;;;;;27.20;30.13;102075.16;5021129;28;19961;-83
2023/08/10 09:59:38;;;;;;;;;;;;;;;27.11;29.82;102080.69;5001896;28;21398;-82
2023/08/10 10:02:08;;;;;;;;;;;;;;;27.21;29.85;102082.25;5019945;28;19929;-81
2023/08/10 10:04:34;;;;;;;;;;;;;;;27.30;29.37;102085.81;5018836;28;19925;-83
2023/08/10 10:07:01;;;;;;;;;;;;;;;27.35;29.71;102080.13;5020230;28;20047;-82
2023/08/10 10:09:28;;;;;;;;;;;;;;;27.42;29.00;102088.66;5019567;28;19924;-81
2023/08/10 10:11:54;;;;;;;;;;;;;;;27.60;29.29;102086.63;5020522;28;20332;-82
2023/08/10 10:14:20;;;;;;;;;;;;;;;27.68;28.23;102083.06;5023865;28;20307;-82
2023/08/10 10:16:46;;;;;;;;;;;;;;;27.67;28.95;102073.19;5028117;28;19917;-81
2023/08/10 10:19:12;;;;;;;;;;;;;;;27.72;28.57;102081.25;5026767;28;19924;-84
2023/08/10 10:21:37;;;;;;;;;;;;;;;27.74;28.68;102083.69;5022045;28;19929;-82
2023/08/10 10:24:03;;;;;;;;;;;;;;;27.72;28.22;102073.00;5023790;28;19949;-82
2023/08/10 10:26:29;;;;;;;;;;;;;;;27.82;28.47;102083.63;5019220;28;20004;-82
2023/08/10 10:29:13;;;;;;;;;;;;;;;27.93;28.03;102071.09;5025749;28;19928;-81
2023/08/10 10:31:39;;;;;;;;;;;;;;;28.01;28.07;102083.22;5026931;28;19932;-82
2023/08/10 10:34:04;;;;;;;;;;;;;;;28.03;27.81;102071.84;5003199;28;19917;-83
2023/08/10 10:36:32;;;;;;;;;;;;;;;28.00;27.64;102076.88;5015244;28;19956;-83
2023/08/10 10:39:11;;;;;;;;;;;;;;;27.95;27.77;102082.56;5007357;28;19925;-81
2023/08/10 10:41:39;;;;;;;;;;;;;;;27.92;27.55;102074.19;5005273;28;19929;-81
2023/08/10 10:44:05;;;;;;;;;;;;;;;27.95;27.89;102071.56;5027921;28;20018;-83
2023/08/10 10:46:30;;;;;;;;;;;;;;;28.01;27.71;102069.44;5030188;28;20400;-82
2023/08/10 10:48:56;;;;;;;;;;;;;;;28.15;27.43;102069.16;5020646;28;19917;-83
2023/08/10 10:51:22;;;;;;;;;;;;;;;28.15;26.89;102071.91;5016527;28;20877;-82
2023/08/10 10:53:48;;;;;;;;;;;;;;;28.15;27.56;102075.47;5026400;28;19975;-83
2023/08/10 10:56:13;;;;;;;;;;;;;;;28.30;27.33;102071.34;5021916;28;19921;-84
2023/08/10 10:58:39;;;;;;;;;;;;;;;28.55;27.62;102070.31;5020684;28;19928;-82
2023/08/10 11:01:05;;;;;;;;;;;;;;;28.88;27.14;102064.00;5020776;28;19940;-82
2023/08/10 11:03:31;;;;;;;;;;;;;;;29.08;26.59;102059.56;5029955;28;19994;-84
2023/08/10 11:05:56;;;;;;;;;;;;;;;29.00;26.80;102077.03;5026393;28;20430;-81
2023/08/10 11:08:22;;;;;;;;;;;;;;;28.96;26.67;102082.44;5028159;28;20373;-83
2023/08/10 11:10:50;;;;;;;;;;;;;;;28.88;26.84;102080.56;5020946;28;19952;-83
2023/08/10 11:13:16;;;;;;;;;;;;;;;28.82;26.61;102074.44;5025670;28;19925;-83
2023/08/10 11:15:45;;;;;;;;;;;;;;;28.93;26.83;102069.34;5024592;28;19951;-83
2023/08/10 11:18:11;;;;;;;;;;;;;;;28.97;26.98;102059.22;5026975;28;19987;-82
2023/08/10 11:20:47;;;;;;;;;;;;;;;29.12;26.67;102066.03;5024727;28;20525;-81
2023/08/10 11:23:13;;;;;;;;;;;;;;;29.26;26.41;102065.69;5022053;28;19917;-83
2023/08/10 11:25:45;;;;;;;;;;;;;;;29.41;26.41;102062.25;5027771;28;20883;-83
2023/08/10 11:28:11;;;;;;;;;;;;;;;29.57;26.28;102060.44;5020282;28;19936;-83
2023/08/10 11:30:36;;;;;;;;;;;;;;;29.62;25.90;102060.19;5021591;28;20401;-83
2023/08/10 11:33:02;;;;;;;;;;;;;;;29.64;26.10;102057.13;5021604;28;19922;-84
2023/08/10 11:35:27;;;;;;;;;;;;;;;29.48;25.76;102057.81;5016851;28;19925;-82
2023/08/10 11:37:53;;;;;;;;;;;;;;;29.15;25.43;102057.06;5026132;28;19980;-83
2023/08/10 11:40:20;;;;;;;;;;;;;;;28.95;26.35;102044.97;5009751;28;20363;-82
2023/08/10 11:42:49;;;;;;;;;;;;;;;28.86;26.06;102052.50;5023310;28;20004;-84
2023/08/10 11:45:22;;;;;;;;;;;;;;;28.84;25.96;102049.25;5027731;28;20011;-82
2023/08/10 11:47:51;;;;;;;;;;;;;;;28.86;26.34;102052.50;5026470;28;20337;-85
2023/08/10 11:50:17;;;;;;;;;;;;;;;28.93;26.69;102055.53;5017475;28;19924;-82
2023/08/10 11:52:43;;;;;;;;;;;;;;;29.05;26.34;102054.75;5005276;28;19921;-82
2023/08/10 11:55:13;;;;;;;;;;;;;;;29.13;26.86;102062.94;5023253;28;20510;-83
2023/08/10 11:57:42;;;;;;;;;;;;;;;29.18;26.26;102054.41;5021580;28;19932;-83
2023/08/10 12:00:25;;;;;;;;;;;;;;;29.15;26.36;102054.31;5022972;28;19921;-83
2023/08/10 12:03:01;;;;;;;;;;;;;;;28.94;25.60;102056.34;5024378;28;19943;-83
2023/08/10 12:05:31;;;;;;;;;;;;;;;28.65;26.28;102060.00;5022315;28;19921;-84
2023/08/10 12:07:59;;;;;;;;;;;;;;;28.54;26.50;102059.59;5021110;28;19923;-84
2023/08/10 12:10:25;;;;;;;;;;;;;;;28.48;26.77;102061.78;5017748;28;19921;-83
2023/08/10 12:12:57;;;;;;;;;;;;;;;28.49;27.21;102057.88;5022304;28;19925;-82
2023/08/10 12:15:23;;;;;;;;;;;;;;;28.55;27.08;102062.06;5022741;28;19940;-83
2023/08/10 12:17:49;;;;;;;;;;;;;;;28.58;27.19;102061.38;5022790;28;19924;-82
2023/08/10 12:20:14;;;;;;;;;;;;;;;28.73;27.41;102062.69;5018036;28;20320;-82
2023/08/10 12:22:40;;;;;;;;;;;;;;;28.82;27.17;102059.84;5019688;28;19928;-83
2023/08/10 12:25:05;;;;;;;;;;;;;;;28.90;27.76;102061.72;5018763;28;19917;-82
2023/08/10 12:27:30;;;;;;;;;;;;;;;28.96;27.26;102060.38;5022047;28;19917;-83
2023/08/10 12:29:56;;;;;;;;;;;;;;;29.07;27.91;102067.03;5023182;28;20535;-83
2023/08/10 12:32:21;;;;;;;;;;;;;;;29.12;26.88;102063.28;5026042;28;19917;-82